Time;durP1;ratioP1;P1;durP2;ratioP2;P2;SDS_P1;SDS_P2;PMS_P1;PMS_P2;Temp;Humidity;BMP_temperature;BMP_pressure;BME280_temperature;BME280_humidity;BME280_pressure;Samples;Min_cycle;Max_cycle;Signal;HPM_P1;HPM_P2
2022/01/15 00:00:30;;;;;;;46.05;22.05;;;0.20;99.90;;;;;;5147891;28;20026;-72
2022/01/15 00:03:01;;;;;;;52.40;24.10;;;-0.10;99.90;;;;;;5147789;28;20015;-74
2022/01/15 00:05:33;;;;;;;45.60;22.60;;;-0.20;99.90;;;;;;5147730;28;20018;-73
2022/01/15 00:08:05;;;;;;;43.40;21.77;;;0.10;99.90;;;;;;5147766;28;20031;-74
2022/01/15 00:10:36;;;;;;;44.08;23.15;;;0.30;99.90;;;;;;5147888;28;20030;-74
2022/01/15 00:13:18;;;;;;;46.25;22.05;;;0.30;99.90;;;;;;5147739;28;20031;-74
2022/01/15 00:16:00;;;;;;;44.97;22.67;;;0.30;99.90;;;;;;5147561;28;20038;-74
2022/01/15 00:18:47;;;;;;;49.72;23.52;;;0.00;99.90;;;;;;5147632;28;20491;-74
2022/01/15 00:21:17;;;;;;;46.67;23.88;;;-0.10;99.90;;;;;;5147511;28;20030;-75
2022/01/15 00:23:48;;;;;;;46.30;22.85;;;-0.20;99.90;;;;;;5146313;28;20470;-74
2022/01/15 00:26:19;;;;;;;45.25;21.52;;;-0.60;99.90;;;;;;5147435;28;20375;-74
2022/01/15 00:28:50;;;;;;;44.50;21.70;;;-0.60;99.90;;;;;;5147439;28;20139;-75
2022/01/15 00:31:21;;;;;;;45.85;22.65;;;0.20;99.90;;;;;;5147433;28;20026;-74
2022/01/15 00:33:52;;;;;;;44.83;22.35;;;-0.20;99.90;;;;;;5147218;28;20434;-74
2022/01/15 00:36:23;;;;;;;40.15;21.55;;;-0.60;99.90;;;;;;5147022;28;20113;-74
2022/01/15 00:38:53;;;;;;;42.83;21.05;;;-0.60;99.90;;;;;;5145713;28;20485;-75
2022/01/15 00:41:25;;;;;;;42.95;22.60;;;-0.50;99.90;;;;;;5147251;28;20027;-75
2022/01/15 00:43:56;;;;;;;39.53;21.95;;;-0.50;99.90;;;;;;5146979;28;20027;-75
2022/01/15 00:46:27;;;;;;;40.05;21.60;;;-0.50;99.90;;;;;;5158062;28;20208;-75
2022/01/15 00:48:58;;;;;;;41.33;20.27;;;-0.70;99.90;;;;;;5165988;28;20027;-75
2022/01/15 00:51:28;;;;;;;36.95;19.00;;;-0.30;99.90;;;;;;5167237;28;20037;-75
2022/01/15 00:53:59;;;;;;;38.05;21.42;;;-0.60;99.90;;;;;;5166916;28;20014;-75
2022/01/15 00:56:30;;;;;;;42.30;21.40;;;-0.60;99.90;;;;;;5166735;28;20027;-75
2022/01/15 00:59:01;;;;;;;38.78;21.13;;;-0.50;99.90;;;;;;5166225;28;20141;-75
2022/01/15 01:01:32;;;;;;;38.17;20.95;;;-0.50;99.90;;;;;;5166894;28;20451;-76
2022/01/15 01:04:03;;;;;;;40.28;21.00;;;-0.30;99.90;;;;;;5181889;28;20386;-76
2022/01/15 01:06:34;;;;;;;40.40;20.67;;;-0.40;99.90;;;;;;5166675;28;20369;-75
2022/01/15 01:09:04;;;;;;;43.60;21.50;;;-0.20;99.90;;;;;;5166745;28;20038;-76
2022/01/15 01:11:46;;;;;;;42.50;20.15;;;-0.40;99.90;;;;;;5166632;28;20049;-75
2022/01/15 01:20:11;;;;;;;42.47;20.35;;;-0.20;99.90;;;;;;5166857;28;20082;-76
2022/01/15 01:25:13;;;;;;;47.92;24.13;;;-0.40;99.90;;;;;;5166554;28;20042;-76
2022/01/15 01:27:48;;;;;;;44.63;21.90;;;-0.60;99.90;;;;;;5166571;28;20034;-76
2022/01/15 01:33:16;;;;;;;44.17;21.65;;;-0.70;99.90;;;;;;5166388;28;20026;-76
2022/01/15 01:35:55;;;;;;;41.25;22.98;;;-0.70;99.90;;;;;;5181562;28;20106;-76
2022/01/15 01:38:32;;;;;;;50.25;24.73;;;-0.90;99.90;;;;;;5165075;28;20042;-76
2022/01/15 01:41:05;;;;;;;52.67;24.77;;;-0.80;99.90;;;;;;5166440;28;20022;-75
2022/01/15 01:48:47;;;;;;;41.47;23.10;;;-0.80;99.90;;;;;;5186973;28;20519;-77
2022/01/15 01:51:39;;;;;;;45.88;22.65;;;-0.60;99.90;;;;;;5186724;28;20046;-76
2022/01/15 01:54:18;;;;;;;47.35;22.38;;;-0.80;99.90;;;;;;5186539;28;20029;-75
2022/01/15 01:56:56;;;;;;;41.58;20.60;;;-0.90;99.90;;;;;;5186244;28;20100;-75
2022/01/15 01:59:32;;;;;;;38.70;20.60;;;-0.80;99.90;;;;;;5186278;28;20132;-76
2022/01/15 02:02:08;;;;;;;42.25;21.92;;;-1.10;99.90;;;;;;5186213;28;20034;-75
2022/01/15 02:04:39;;;;;;;42.10;22.50;;;-1.10;99.90;;;;;;5186506;28;20022;-76
2022/01/15 02:07:09;;;;;;;49.28;23.10;;;-1.20;99.90;;;;;;5186353;28;20022;-76
2022/01/15 02:09:40;;;;;;;53.38;25.30;;;-1.30;99.90;;;;;;5188759;28;20033;-76
2022/01/15 02:12:11;;;;;;;44.35;21.92;;;-1.30;99.90;;;;;;5190374;28;20058;-76
2022/01/15 02:14:42;;;;;;;42.58;22.35;;;-1.20;99.90;;;;;;5190213;28;20496;-76
2022/01/15 02:17:17;;;;;;;42.35;23.02;;;-1.00;99.90;;;;;;5190246;28;20053;-76
2022/01/15 02:20:08;;;;;;;42.80;22.63;;;-1.20;99.90;;;;;;5190295;28;20076;-76
2022/01/15 02:25:58;;;;;;;48.05;22.95;;;-1.40;99.90;;;;;;5190340;28;20036;-76
2022/01/15 02:28:40;;;;;;;51.60;24.02;;;-1.60;99.90;;;;;;5190184;28;20030;-76
2022/01/15 02:31:14;;;;;;;45.17;22.98;;;-1.60;99.90;;;;;;5190194;28;20026;-76
2022/01/15 02:33:47;;;;;;;49.95;22.40;;;-1.50;99.90;;;;;;5190046;28;20473;-76
2022/01/15 02:36:33;;;;;;;42.45;22.20;;;-1.60;99.90;;;;;;5190027;28;20053;-76
2022/01/15 02:39:05;;;;;;;45.90;23.60;;;-1.40;99.90;;;;;;5189836;28;20071;-76
2022/01/15 02:41:38;;;;;;;40.70;21.42;;;-1.50;99.90;;;;;;5189891;28;20168;-76
2022/01/15 02:44:16;;;;;;;41.60;21.42;;;-1.60;99.90;;;;;;5189843;28;20801;-76
2022/01/15 02:49:20;;;;;;;42.80;22.80;;;-1.80;99.90;;;;;;5189749;28;20061;-77
2022/01/15 02:51:51;;;;;;;48.33;24.63;;;-1.70;99.90;;;;;;5189757;28;20022;-77
2022/01/15 02:54:23;;;;;;;44.70;24.17;;;-1.70;99.90;;;;;;5189511;28;20033;-77
2022/01/15 02:56:54;;;;;;;46.95;24.02;;;-1.40;99.90;;;;;;5189694;28;20176;-77
2022/01/15 02:59:26;;;;;;;41.20;22.20;;;-1.50;99.90;;;;;;5189515;28;20116;-77
2022/01/15 03:01:56;;;;;;;48.58;23.65;;;-2.10;99.90;;;;;;5189715;28;20123;-77
2022/01/15 03:04:27;;;;;;;48.63;23.73;;;-2.00;99.90;;;;;;5172107;28;20065;-77
2022/01/15 03:06:58;;;;;;;51.63;25.52;;;-2.10;99.90;;;;;;5189567;28;20131;-77
2022/01/15 03:09:29;;;;;;;50.45;28.15;;;-2.10;99.90;;;;;;5189212;28;20461;-77
2022/01/15 03:12:02;;;;;;;56.88;28.58;;;-2.20;99.90;;;;;;5189246;28;20061;-77
2022/01/15 03:14:34;;;;;;;54.55;28.48;;;-2.20;99.90;;;;;;5188977;28;20022;-76
2022/01/15 03:17:05;;;;;;;55.90;29.58;;;-2.10;99.90;;;;;;5188955;28;20034;-76
2022/01/15 03:19:35;;;;;;;58.80;31.00;;;-2.20;99.90;;;;;;5188854;28;20030;-76
2022/01/15 03:22:06;;;;;;;50.70;27.63;;;-2.20;99.90;;;;;;5188217;28;20107;-76
2022/01/15 03:24:37;;;;;;;55.20;26.92;;;-2.10;99.90;;;;;;5188795;28;20488;-77
2022/01/15 03:27:08;;;;;;;56.60;28.98;;;-2.20;99.90;;;;;;5188862;28;20025;-76
2022/01/15 03:29:39;;;;;;;54.03;28.92;;;-2.10;99.90;;;;;;5188789;28;20053;-77
2022/01/15 03:32:10;;;;;;;52.83;27.85;;;-2.10;99.90;;;;;;5188840;28;20041;-77
2022/01/15 03:34:40;;;;;;;52.55;28.45;;;-2.20;99.90;;;;;;5188709;28;20079;-77
2022/01/15 03:37:12;;;;;;;49.22;27.58;;;-2.10;99.90;;;;;;5188621;28;20062;-76
2022/01/15 03:39:44;;;;;;;51.60;28.10;;;-2.30;99.90;;;;;;5188525;28;20709;-77
2022/01/15 03:42:15;;;;;;;49.10;27.50;;;-2.40;99.90;;;;;;5188745;28;20500;-76
2022/01/15 03:44:48;;;;;;;55.90;28.20;;;-2.40;99.90;;;;;;5188431;28;20022;-76
2022/01/15 03:47:19;;;;;;;53.17;28.70;;;-2.40;99.90;;;;;;5188524;28;20406;-76
2022/01/15 03:49:50;;;;;;;56.25;30.05;;;-2.70;99.90;;;;;;5188281;28;20095;-76
2022/01/15 03:52:21;;;;;;;54.35;28.25;;;-2.70;99.90;;;;;;5188253;28;20026;-77
2022/01/15 03:54:52;;;;;;;51.60;25.80;;;-2.60;99.90;;;;;;5188359;28;20033;-77
2022/01/15 03:57:22;;;;;;;52.22;28.13;;;-2.70;99.90;;;;;;5188322;28;20045;-76
2022/01/15 03:59:53;;;;;;;56.25;27.80;;;-2.60;99.90;;;;;;5188398;28;20029;-77
2022/01/15 04:02:24;;;;;;;51.03;27.77;;;-2.50;99.90;;;;;;5188473;28;20104;-77
2022/01/15 04:04:55;;;;;;;51.90;27.88;;;-2.70;99.90;;;;;;5188288;28;20030;-77
2022/01/15 04:07:26;;;;;;;54.85;27.35;;;-2.50;99.90;;;;;;5188008;28;20034;-76
2022/01/15 04:09:56;;;;;;;53.63;27.42;;;-2.50;99.90;;;;;;5188356;28;20501;-77
2022/01/15 04:12:27;;;;;;;51.05;27.60;;;-2.60;99.90;;;;;;5188016;28;20084;-76
2022/01/15 04:14:58;;;;;;;51.47;27.05;;;-2.50;99.90;;;;;;5187886;28;20501;-77
2022/01/15 04:17:29;;;;;;;52.63;28.65;;;-2.60;99.90;;;;;;5188057;28;20041;-77
2022/01/15 04:20:00;;;;;;;53.00;27.88;;;-2.80;99.90;;;;;;5187769;28;20026;-77
2022/01/15 04:22:31;;;;;;;51.72;26.85;;;-2.60;99.90;;;;;;5187953;28;20018;-77
2022/01/15 04:25:02;;;;;;;54.13;26.52;;;-2.60;99.90;;;;;;5188169;28;20512;-76
2022/01/15 04:27:33;;;;;;;45.88;25.02;;;-2.50;99.90;;;;;;5187946;28;20026;-77
2022/01/15 04:30:06;;;;;;;50.67;27.05;;;-2.60;99.90;;;;;;5170311;28;20519;-77
2022/01/15 04:32:37;;;;;;;48.92;25.95;;;-2.60;99.90;;;;;;5170230;28;20066;-77
2022/01/15 04:35:08;;;;;;;48.65;25.92;;;-2.60;99.90;;;;;;5187586;28;20057;-77
2022/01/15 04:37:53;;;;;;;48.25;25.77;;;-2.50;99.90;;;;;;5187511;28;20037;-77
2022/01/15 04:40:23;;;;;;;48.80;25.05;;;-2.50;99.90;;;;;;5187545;28;20022;-77
2022/01/15 04:42:54;;;;;;;46.05;25.52;;;-2.50;99.90;;;;;;5187504;28;20037;-76
2022/01/15 04:45:25;;;;;;;51.30;26.35;;;-2.50;99.90;;;;;;5187103;28;20041;-78
2022/01/15 04:47:56;;;;;;;46.60;25.95;;;-2.50;99.90;;;;;;5187545;28;20041;-76
2022/01/15 04:50:27;;;;;;;46.65;24.98;;;-2.50;99.90;;;;;;5187475;28;20052;-79
2022/01/15 04:52:57;;;;;;;47.63;25.65;;;-2.50;99.90;;;;;;5169849;28;20049;-78
2022/01/15 04:55:28;;;;;;;48.42;25.35;;;-2.60;99.90;;;;;;5187325;28;20482;-76
2022/01/15 04:57:59;;;;;;;47.45;25.08;;;-2.60;99.90;;;;;;5187217;28;20037;-76
2022/01/15 05:00:31;;;;;;;45.10;24.23;;;-2.60;99.90;;;;;;5187198;28;20084;-76
2022/01/15 05:03:02;;;;;;;41.85;23.85;;;-2.60;99.90;;;;;;5187085;28;20461;-78
2022/01/15 05:05:33;;;;;;;46.58;24.17;;;-2.50;99.90;;;;;;5187070;28;20382;-79
2022/01/15 05:08:05;;;;;;;45.63;25.42;;;-2.60;99.90;;;;;;5187045;28;20026;-76
2022/01/15 05:10:37;;;;;;;47.92;26.25;;;-2.60;99.90;;;;;;5186854;28;20593;-76
2022/01/15 05:13:08;;;;;;;50.03;26.98;;;-2.80;99.90;;;;;;5186891;28;20029;-76
2022/01/15 05:15:38;;;;;;;50.00;25.15;;;-2.90;99.90;;;;;;5186771;28;20080;-76
2022/01/15 05:18:10;;;;;;;52.70;26.33;;;-2.80;99.90;;;;;;5186761;28;20129;-76
2022/01/15 05:20:44;;;;;;;45.13;24.33;;;-2.60;99.90;;;;;;5186699;28;20037;-79
2022/01/15 05:23:15;;;;;;;45.95;24.48;;;-2.60;99.90;;;;;;5186558;28;20100;-79
2022/01/15 05:25:45;;;;;;;45.60;23.83;;;-2.60;99.90;;;;;;5186657;28;20470;-76
2022/01/15 05:28:16;;;;;;;45.63;24.15;;;-2.50;99.90;;;;;;5186692;28;20418;-79
2022/01/15 05:30:47;;;;;;;46.15;24.73;;;-2.50;99.90;;;;;;5186322;28;20389;-79
2022/01/15 05:33:18;;;;;;;46.50;24.02;;;-2.70;99.90;;;;;;5186510;28;20033;-77
2022/01/15 05:35:49;;;;;;;47.80;25.27;;;-2.50;99.90;;;;;;5186563;28;20022;-76
2022/01/15 05:38:20;;;;;;;44.70;23.77;;;-2.50;99.90;;;;;;5186363;28;20046;-77
2022/01/15 05:40:50;;;;;;;45.88;24.00;;;-2.60;99.90;;;;;;5186440;28;20018;-79
2022/01/15 05:43:21;;;;;;;50.05;24.13;;;-2.50;99.90;;;;;;5186151;28;20041;-79
2022/01/15 05:45:52;;;;;;;45.13;24.75;;;-2.40;99.90;;;;;;5186323;28;20045;-77
2022/01/15 05:48:23;;;;;;;44.40;23.02;;;-2.60;99.90;;;;;;5186449;28;20064;-76
2022/01/15 05:50:54;;;;;;;46.22;24.30;;;-2.40;99.90;;;;;;5186303;28;20153;-75
2022/01/15 05:53:24;;;;;;;43.63;23.13;;;-2.30;99.90;;;;;;5186288;28;20466;-75
2022/01/15 05:55:55;;;;;;;42.88;22.80;;;-2.40;99.90;;;;;;5186436;28;20022;-75
2022/01/15 05:58:26;;;;;;;44.05;24.25;;;-2.20;99.90;;;;;;5186278;28;20048;-79
2022/01/15 06:00:57;;;;;;;48.97;24.25;;;-2.60;99.90;;;;;;5186446;28;20021;-77
2022/01/15 06:03:27;;;;;;;39.78;22.17;;;-2.50;99.90;;;;;;5186276;28;20017;-75
2022/01/15 06:06:02;;;;;;;44.72;23.25;;;-2.40;99.90;;;;;;5168683;28;20026;-76
2022/01/15 06:08:33;;;;;;;49.05;24.27;;;-2.50;99.90;;;;;;5186231;28;20072;-80
2022/01/15 06:11:03;;;;;;;43.60;23.63;;;-2.40;99.90;;;;;;5186197;28;20654;-78
2022/01/15 06:13:34;;;;;;;42.67;22.20;;;-2.40;99.90;;;;;;5186211;28;20105;-75
2022/01/15 06:16:05;;;;;;;44.20;23.55;;;-2.30;99.90;;;;;;5186032;28;20037;-75
2022/01/15 06:18:36;;;;;;;42.30;23.48;;;-2.20;99.90;;;;;;5186057;28;20155;-75
2022/01/15 06:21:07;;;;;;;45.17;23.55;;;-2.20;99.90;;;;;;5168545;28;20076;-80
2022/01/15 06:23:38;;;;;;;45.55;24.92;;;-1.90;99.90;;;;;;5186126;28;20401;-75
2022/01/15 06:26:09;;;;;;;47.05;25.20;;;-2.00;99.90;;;;;;5186163;28;20029;-75
2022/01/15 06:28:40;;;;;;;48.13;27.05;;;-1.80;99.90;;;;;;5185921;28;20029;-75
2022/01/15 06:31:12;;;;;;;43.78;22.92;;;-1.90;99.90;;;;;;5186079;28;20029;-79
2022/01/15 06:33:43;;;;;;;45.17;22.65;;;-1.80;99.90;;;;;;5168499;28;20030;-79
2022/01/15 06:36:14;;;;;;;43.92;22.33;;;-1.60;99.90;;;;;;5168259;28;20029;-75
2022/01/15 06:38:44;;;;;;;34.25;18.77;;;-1.70;99.90;;;;;;5185742;28;20026;-76
2022/01/15 06:41:15;;;;;;;43.47;24.08;;;-1.30;99.90;;;;;;5185984;28;20393;-75
2022/01/15 06:43:46;;;;;;;51.15;28.83;;;-1.10;99.90;;;;;;5185604;28;20034;-74
2022/01/15 06:46:17;;;;;;;50.03;26.83;;;-1.10;99.90;;;;;;5185634;28;20397;-75
2022/01/15 06:48:48;;;;;;;46.90;22.05;;;-1.10;99.90;;;;;;5185945;28;20022;-74
2022/01/15 06:51:19;;;;;;;43.55;22.73;;;-1.10;99.90;;;;;;5185760;28;20026;-75
2022/01/15 06:53:50;;;;;;;43.13;20.88;;;-1.00;99.90;;;;;;5185857;28;20026;-75
2022/01/15 06:56:21;;;;;;;48.47;24.70;;;-0.90;99.90;;;;;;5187462;28;20030;-75
2022/01/15 06:58:51;;;;;;;46.95;24.48;;;-0.70;99.90;;;;;;5189321;28;20116;-75
2022/01/15 07:01:23;;;;;;;42.90;20.85;;;-0.70;99.90;;;;;;5203041;28;20060;-74
2022/01/15 07:03:54;;;;;;;44.05;20.27;;;-0.60;99.90;;;;;;5209906;28;20033;-79
2022/01/15 07:06:25;;;;;;;41.30;19.95;;;-0.50;99.90;;;;;;5209780;28;20461;-78
2022/01/15 07:08:56;;;;;;;36.72;18.83;;;-0.30;99.90;;;;;;5209763;28;20033;-77
2022/01/15 07:11:26;;;;;;;41.50;22.25;;;-0.20;99.90;;;;;;5209635;28;20469;-79
2022/01/15 07:13:57;;;;;;;45.58;22.38;;;0.00;99.90;;;;;;5209848;28;20033;-75
2022/01/15 07:16:28;;;;;;;41.75;23.48;;;0.20;99.90;;;;;;5209527;28;20377;-75
2022/01/15 07:18:59;;;;;;;33.25;18.10;;;0.20;99.90;;;;;;5209551;28;20120;-76
2022/01/15 07:21:30;;;;;;;41.25;23.85;;;0.40;99.90;;;;;;5209675;28;20057;-75
2022/01/15 07:24:00;;;;;;;29.98;15.70;;;0.30;99.90;;;;;;5209410;28;20034;-75
2022/01/15 07:26:31;;;;;;;28.88;16.25;;;0.70;99.90;;;;;;5191788;28;20059;-74
2022/01/15 07:29:04;;;;;;;30.30;17.27;;;0.80;99.90;;;;;;5209143;28;20053;-74
2022/01/15 07:31:35;;;;;;;20.70;9.07;;;1.30;99.90;;;;;;5208979;28;20043;-74
2022/01/15 07:34:06;;;;;;;14.13;5.90;;;2.60;99.90;;;;;;5191201;28;20124;-78
2022/01/15 07:36:38;;;;;;;10.38;4.40;;;3.40;99.90;;;;;;5208934;28;20096;-82
2022/01/15 07:39:09;;;;;;;7.55;2.33;;;4.10;99.90;;;;;;5208835;28;20082;-75
2022/01/15 07:41:40;;;;;;;9.52;1.92;;;4.80;99.90;;;;;;5209104;28;20022;-81
2022/01/15 07:44:11;;;;;;;6.03;2.13;;;4.90;99.90;;;;;;5208887;28;20095;-83
2022/01/15 07:46:42;;;;;;;6.40;1.73;;;5.20;99.90;;;;;;5208227;28;20100;-82
2022/01/15 07:49:13;;;;;;;3.75;1.77;;;5.20;99.90;;;;;;5109572;28;20536;-76
2022/01/15 07:51:44;;;;;;;11.73;2.45;;;5.10;99.90;;;;;;5187836;28;20033;-76
2022/01/15 07:54:14;;;;;;;6.82;2.72;;;5.30;99.90;;;;;;5188643;28;20026;-76
2022/01/15 07:56:45;;;;;;;8.25;3.35;;;5.30;99.90;;;;;;5170566;28;20030;-76
2022/01/15 07:59:16;;;;;;;8.50;3.63;;;5.30;99.90;;;;;;5188319;28;20034;-80
2022/01/15 08:01:47;;;;;;;7.53;2.90;;;5.30;99.90;;;;;;5188416;28;20026;-77
2022/01/15 08:04:18;;;;;;;78.03;39.80;;;5.50;99.90;;;;;;5188157;28;20034;-76
2022/01/15 08:06:48;;;;;;;84.43;44.97;;;5.50;99.90;;;;;;5187800;28;20465;-81
2022/01/15 08:09:20;;;;;;;51.38;29.90;;;5.50;99.90;;;;;;5188088;28;20030;-76
2022/01/15 08:11:51;;;;;;;11.43;5.60;;;5.70;99.90;;;;;;5188094;28;20034;-76
2022/01/15 08:14:21;;;;;;;11.27;5.50;;;5.70;99.90;;;;;;5188231;28;20449;-80
2022/01/15 08:16:52;;;;;;;9.48;4.75;;;5.70;99.90;;;;;;5188201;28;20037;-76
2022/01/15 08:19:23;;;;;;;7.28;4.55;;;5.80;99.90;;;;;;5188111;28;20489;-83
2022/01/15 08:21:54;;;;;;;7.90;4.82;;;5.80;99.90;;;;;;5170228;28;20121;-76
2022/01/15 08:24:25;;;;;;;7.63;3.45;;;5.80;99.90;;;;;;5187985;28;20030;-78
2022/01/15 08:26:56;;;;;;;12.75;6.55;;;5.80;99.90;;;;;;5187975;28;20029;-78
2022/01/15 08:29:26;;;;;;;7.35;2.75;;;6.00;99.90;;;;;;5187755;28;20097;-77
2022/01/15 08:31:57;;;;;;;9.35;3.47;;;6.00;99.90;;;;;;5187775;28;20022;-77
2022/01/15 08:34:28;;;;;;;6.43;2.10;;;6.10;99.90;;;;;;5187683;28;20049;-77
2022/01/15 08:36:59;;;;;;;6.70;2.63;;;6.20;99.90;;;;;;5187669;28;20026;-77
2022/01/15 08:39:31;;;;;;;8.02;3.38;;;6.40;99.90;;;;;;5187358;28;20441;-77
2022/01/15 08:42:05;;;;;;;8.00;3.15;;;6.40;99.90;;;;;;5187833;28;20474;-77
2022/01/15 08:44:40;;;;;;;9.90;6.63;;;6.60;99.90;;;;;;5187378;28;20022;-77
2022/01/15 08:47:11;;;;;;;7.40;3.15;;;6.80;99.90;;;;;;5187278;28;20045;-77
2022/01/15 08:49:42;;;;;;;10.98;2.55;;;6.90;99.90;;;;;;5187264;28;20028;-77
2022/01/15 08:52:13;;;;;;;7.18;3.10;;;6.90;99.90;;;;;;5205022;28;20376;-77
2022/01/15 08:54:44;;;;;;;8.50;3.55;;;6.90;99.90;;;;;;5206834;28;20053;-77
2022/01/15 08:57:15;;;;;;;6.38;3.20;;;7.00;99.90;;;;;;5206911;28;20068;-77
2022/01/15 08:59:46;;;;;;;8.52;3.38;;;6.80;99.90;;;;;;5206898;28;20576;-77
2022/01/15 09:02:17;;;;;;;10.13;4.57;;;6.70;99.90;;;;;;5206235;28;20022;-77
2022/01/15 09:04:48;;;;;;;14.05;5.88;;;6.70;99.90;;;;;;5207817;28;20025;-76
2022/01/15 09:07:20;;;;;;;7.90;4.07;;;6.70;99.90;;;;;;5207563;28;20506;-77
2022/01/15 09:09:51;;;;;;;8.63;3.97;;;6.70;99.90;;;;;;5207628;28;20491;-77
2022/01/15 09:12:22;;;;;;;14.13;4.43;;;6.60;99.90;;;;;;5207580;28;20009;-77
2022/01/15 09:14:58;;;;;;;8.35;3.63;;;6.60;99.90;;;;;;5206117;28;20120;-77
2022/01/15 09:17:29;;;;;;;8.23;4.18;;;6.60;99.90;;;;;;5207368;28;20061;-77
2022/01/15 09:20:00;;;;;;;7.72;4.18;;;6.80;99.90;;;;;;5206354;28;20110;-77
2022/01/15 09:22:30;;;;;;;7.78;3.75;;;6.80;99.90;;;;;;5207148;28;20037;-77
2022/01/15 09:25:02;;;;;;;7.90;4.72;;;6.90;99.90;;;;;;5207218;28;20093;-77
2022/01/15 09:30:22;;;;;;;7.15;3.70;;;7.60;99.90;;;;;;5186842;28;20029;-77
2022/01/15 09:32:55;;;;;;;6.70;2.88;;;7.80;99.90;;;;;;5142707;28;20378;-77
2022/01/15 09:35:28;;;;;;;8.48;3.70;;;7.50;99.90;;;;;;5198673;28;20026;-77
2022/01/15 09:37:59;;;;;;;9.50;3.83;;;7.70;99.90;;;;;;5207546;28;20183;-77
2022/01/15 09:40:30;;;;;;;7.85;4.07;;;8.10;99.90;;;;;;5207045;28;20025;-77
2022/01/15 09:43:03;;;;;;;7.72;3.25;;;8.60;99.90;;;;;;5205870;28;20029;-76
2022/01/15 09:45:35;;;;;;;8.68;4.60;;;8.90;99.90;;;;;;5205338;28;20504;-76
2022/01/15 09:48:07;;;;;;;33.65;23.25;;;8.90;99.90;;;;;;5207085;28;20044;-76
2022/01/15 09:50:43;;;;;;;8.57;3.53;;;9.10;99.90;;;;;;5207061;28;20111;-76
2022/01/15 09:53:18;;;;;;;6.43;3.33;;;8.90;99.90;;;;;;5206742;28;20030;-78
2022/01/15 09:55:49;;;;;;;7.30;4.13;;;8.90;99.90;;;;;;5206788;28;20124;-74
2022/01/15 09:58:20;;;;;;;9.63;5.72;;;9.20;99.90;;;;;;5206868;28;20100;-74
2022/01/15 10:00:51;;;;;;;6.95;3.80;;;8.90;99.90;;;;;;5206891;28;20029;-76
2022/01/15 10:03:22;;;;;;;7.03;3.60;;;8.90;99.90;;;;;;5206695;28;20031;-74
2022/01/15 10:05:53;;;;;;;9.20;5.95;;;8.50;99.90;;;;;;5206663;28;20465;-77
2022/01/15 10:08:25;;;;;;;7.72;3.90;;;9.10;99.90;;;;;;5198154;28;20018;-73
2022/01/15 10:10:58;;;;;;;16.40;12.43;;;8.50;99.90;;;;;;5186153;28;20459;-75
2022/01/15 10:13:29;;;;;;;5.97;4.13;;;8.20;99.90;;;;;;5186133;28;20454;-74
2022/01/15 10:16:01;;;;;;;7.32;4.07;;;8.30;99.90;;;;;;5185870;28;20032;-74
2022/01/15 10:18:35;;;;;;;6.72;4.30;;;9.30;99.90;;;;;;5185708;28;20041;-76
2022/01/15 10:21:29;;;;;;;7.60;5.32;;;9.80;99.90;;;;;;5186038;28;20049;-76
2022/01/15 10:24:01;;;;;;;7.88;4.30;;;10.30;99.90;;;;;;5190076;28;20587;-74
2022/01/15 10:26:35;;;;;;;8.43;4.40;;;10.20;99.90;;;;;;5202644;28;20449;-75
2022/01/15 10:29:09;;;;;;;11.82;4.05;;;10.50;99.90;;;;;;5205691;28;20534;-77
2022/01/15 10:31:43;;;;;;;5.85;2.60;;;10.70;99.90;;;;;;5206882;28;20060;-75
2022/01/15 10:34:33;;;;;;;5.50;3.35;;;10.40;98.30;;;;;;5210034;28;20045;-75
2022/01/15 10:37:09;;;;;;;8.52;3.88;;;10.40;99.90;;;;;;5205519;28;20025;-75
2022/01/15 10:40:04;;;;;;;10.48;5.70;;;10.30;87.20;;;;;;5202223;28;20504;-75
2022/01/15 10:42:35;;;;;;;6.78;5.47;;;10.70;95.00;;;;;;5210366;28;20033;-74
2022/01/15 10:45:12;;;;;;;7.75;5.10;;;10.70;94.50;;;;;;5210118;28;20466;-75
2022/01/15 10:47:48;;;;;;;6.18;3.67;;;10.50;93.40;;;;;;5199910;28;20046;-78
2022/01/15 10:50:27;;;;;;;3.92;2.40;;;10.40;94.10;;;;;;5210049;28;20018;-75
2022/01/15 10:53:10;;;;;;;5.72;3.22;;;9.70;90.90;;;;;;5209846;28;20029;-76
2022/01/15 10:55:41;;;;;;;6.68;3.20;;;9.30;99.90;;;;;;5210038;28;20030;-76
2022/01/15 10:58:12;;;;;;;8.45;4.07;;;9.30;99.90;;;;;;5210103;28;20080;-78
2022/01/15 11:00:46;;;;;;;7.18;4.85;;;10.50;91.40;;;;;;5210205;28;20079;-76
2022/01/15 11:03:18;;;;;;;5.22;2.80;;;9.90;98.50;;;;;;5210045;28;20021;-76
2022/01/15 11:05:50;;;;;;;11.55;5.20;;;9.80;94.20;;;;;;5209771;28;20029;-78
2022/01/15 11:08:28;;;;;;;5.22;2.40;;;10.60;96.30;;;;;;5210038;28;20461;-79
2022/01/15 11:11:03;;;;;;;5.05;2.47;;;10.10;87.20;;;;;;5210037;28;20029;-77
2022/01/15 11:13:39;;;;;;;5.47;3.85;;;10.00;89.40;;;;;;5209759;28;20477;-80
2022/01/15 11:16:14;;;;;;;8.88;4.22;;;10.20;93.30;;;;;;5209783;28;20033;-76
2022/01/15 11:18:49;;;;;;;8.23;4.50;;;10.80;92.60;;;;;;5209459;28;20497;-76
2022/01/15 11:21:22;;;;;;;6.03;3.42;;;10.70;82.90;;;;;;5209596;28;20037;-76
2022/01/15 11:23:56;;;;;;;8.55;3.55;;;10.80;73.20;;;;;;5209574;28;20034;-79
2022/01/15 11:26:29;;;;;;;5.97;3.10;;;10.40;76.10;;;;;;5209535;28;20424;-76
2022/01/15 11:29:00;;;;;;;4.55;3.10;;;10.60;72.20;;;;;;5209395;28;20024;-78
2022/01/15 11:31:39;;;;;;;4.13;2.78;;;10.40;72.70;;;;;;5209099;28;20025;-79
2022/01/15 11:34:14;;;;;;;7.88;3.25;;;10.90;73.10;;;;;;5209343;28;20022;-76
2022/01/15 11:36:44;;;;;;;7.85;3.80;;;11.20;70.20;;;;;;5209082;28;20425;-79
2022/01/15 11:39:32;;;;;;;6.60;3.03;;;10.50;71.50;;;;;;5208997;28;20179;-79
2022/01/15 11:42:04;;;;;;;8.38;5.00;;;10.60;72.50;;;;;;5208310;28;20026;-79
2022/01/15 11:44:41;;;;;;;5.07;3.20;;;10.40;70.70;;;;;;5209085;28;20022;-78
2022/01/15 11:47:25;;;;;;;4.65;2.70;;;10.30;71.40;;;;;;5208845;28;20053;-79
2022/01/15 11:50:26;;;;;;;7.43;5.03;;;9.90;74.40;;;;;;5208829;28;20056;-79
2022/01/15 11:53:12;;;;;;;7.57;5.07;;;10.90;69.60;;;;;;5208759;28;20032;-79
2022/01/15 11:56:23;;;;;;;7.30;3.10;;;10.90;69.20;;;;;;5209043;28;20446;-79
2022/01/15 11:58:56;;;;;;;5.53;2.80;;;10.80;66.20;;;;;;5208598;28;20045;-79
2022/01/15 12:01:38;;;;;;;8.07;3.85;;;10.80;65.40;;;;;;5208786;28;20369;-78
2022/01/15 12:04:28;;;;;;;6.47;2.92;;;11.20;62.30;;;;;;5208709;28;20029;-79
2022/01/15 12:07:05;;;;;;;;;;;10.20;62.40;;;;;;5209143;28;20033;-79
2022/01/15 12:09:45;;;;;;;5.38;3.45;;;10.80;59.80;;;;;;5208808;28;20019;-79
2022/01/15 12:12:29;;;;;;;3.03;1.58;;;9.90;56.40;;;;;;5208619;28;20400;-78
2022/01/15 12:15:04;;;;;;;3.88;2.38;;;10.00;55.10;;;;;;5208592;28;20433;-78
2022/01/15 12:17:51;;;;;;;6.03;3.13;;;9.90;55.10;;;;;;5208482;28;20065;-76
2022/01/15 12:20:28;;;;;;;7.13;4.30;;;10.50;56.50;;;;;;5207181;28;20018;-78
2022/01/15 12:23:22;;;;;;;5.57;3.38;;;10.20;56.80;;;;;;5208322;28;20029;-76
2022/01/15 12:25:55;;;;;;;6.30;3.63;;;10.10;54.60;;;;;;5208357;28;20083;-76
2022/01/15 12:28:27;;;;;;;6.18;3.70;;;10.00;54.10;;;;;;5208307;28;20380;-79
2022/01/15 12:30:58;;;;;;;4.65;2.95;;;10.70;56.80;;;;;;5208090;28;20025;-75
2022/01/15 12:33:29;;;;;;;4.00;2.80;;;11.00;56.10;;;;;;5208221;28;20029;-77
2022/01/15 12:36:01;;;;;;;7.00;3.33;;;10.70;55.90;;;;;;5208162;28;20033;-77
2022/01/15 12:38:33;;;;;;;7.25;4.60;;;10.70;57.50;;;;;;5208034;28;20461;-77
2022/01/15 12:41:11;;;;;;;4.82;2.65;;;11.00;57.60;;;;;;5181154;28;20030;-79
2022/01/15 12:43:43;;;;;;;11.57;7.00;;;10.70;58.10;;;;;;5207616;28;20015;-78
2022/01/15 12:46:16;;;;;;;14.55;8.63;;;10.70;60.90;;;;;;5207605;28;20057;-76
2022/01/15 12:48:47;;;;;;;33.00;19.40;;;10.30;57.90;;;;;;5207656;28;20377;-79
2022/01/15 12:51:21;;;;;;;9.35;5.38;;;10.50;59.80;;;;;;5207868;28;20048;-76
2022/01/15 12:54:00;;;;;;;8.35;3.83;;;10.70;61.40;;;;;;5206756;28;20033;-76
2022/01/15 12:56:38;;;;;;;6.55;3.10;;;10.50;61.20;;;;;;5207584;28;20392;-76
2022/01/15 12:59:09;;;;;;;5.35;2.97;;;9.90;61.50;;;;;;5207661;28;20349;-76
2022/01/15 13:01:40;;;;;;;12.30;4.68;;;9.80;63.30;;;;;;5207527;28;20039;-76
2022/01/15 13:04:11;;;;;;;6.65;2.72;;;9.70;62.80;;;;;;5207554;28;20026;-80
2022/01/15 13:06:47;;;;;;;5.93;2.92;;;10.10;62.20;;;;;;5207801;28;20076;-75
2022/01/15 13:09:18;;;;;;;7.75;4.35;;;10.00;61.40;;;;;;5207536;28;20113;-75
2022/01/15 13:11:58;;;;;;;5.05;2.83;;;10.00;62.30;;;;;;5207396;28;20105;-75
2022/01/15 13:14:40;;;;;;;78.50;24.42;;;10.00;64.60;;;;;;5207307;28;20029;-75
2022/01/15 13:17:23;;;;;;;8.52;3.40;;;10.70;65.00;;;;;;5207252;28;20030;-80
2022/01/15 13:19:53;;;;;;;12.68;7.93;;;10.40;61.80;;;;;;5207179;28;20036;-77
2022/01/15 13:22:24;;;;;;;5.57;3.13;;;9.50;63.40;;;;;;5207367;28;20018;-79
2022/01/15 13:25:05;;;;;;;4.13;2.72;;;10.40;65.20;;;;;;5207372;28;20033;-74
2022/01/15 13:27:36;;;;;;;8.02;4.03;;;10.20;62.90;;;;;;5207198;28;20164;-74
2022/01/15 13:30:07;;;;;;;4.93;3.10;;;10.00;63.80;;;;;;5207085;28;20116;-74
2022/01/15 13:32:38;;;;;;;4.35;2.80;;;9.40;65.50;;;;;;5207122;28;20420;-74